CheckWX is a tool to help pilots better visualize weather data.  It is not intended as a substitute for an official pre-flight weather briefing.

15:24:02 UTC

KMGC METAR
Michigan City Municipal-Phillips Field Airport
Michigan City, Indiana, USA
Current

9 mins ago

KMGC 261515Z AUTO 29005KT 10SM CLR 17/13 A3005 RMK AO2
Observed
May-26 @ 15:15 UTC
Wind
  • 290° at 5 KTS
Visibility
10 SM
Flight Rules
VFR
Cloud Levels
  • Clear skies
Temperature
17°C / 63°F
Dewpoint
13°C / 55°F
Humidity
77%
Altimeter
30.05" Hg
Pressure
1017.62 hPa
Previous

29 mins ago

KMGC 261455Z AUTO 26004KT 10SM CLR 18/15 A3004 RMK AO2
Observed
May-26 @ 14:55 UTC
Wind
  • 260° at 4 KTS
Visibility
10 SM
Flight Rules
VFR
Cloud Levels
  • Clear skies
Temperature
18°C / 64°F
Dewpoint
15°C / 59°F
Humidity
83%
Altimeter
30.04" Hg
Pressure
1017.32 hPa
Previous

49 mins ago

KMGC 261435Z AUTO 30003KT 10SM SCT090 18/15 A3002 RMK AO2
Observed
May-26 @ 14:35 UTC
Wind
  • 300° at 3 KTS
Visibility
10 SM
Flight Rules
VFR
Cloud Levels
  • Scattered at 9,000' AGL
Temperature
18°C / 64°F
Dewpoint
15°C / 59°F
Humidity
83%
Altimeter
30.02" Hg
Pressure
1016.62 hPa